sensor_id;sensor_type;location;lat;lon;timestamp;P1;durP1;ratioP1;P2;durP2;ratioP2
36189;SDS011;22232;50.914;13.858;2023-11-19T00:00:11;19.70;;;13.82;;
36189;SDS011;22232;50.914;13.858;2023-11-19T00:02:40;25.23;;;14.32;;
36189;SDS011;22232;50.914;13.858;2023-11-19T00:05:10;25.10;;;13.80;;
36189;SDS011;22232;50.914;13.858;2023-11-19T00:07:41;21.58;;;12.60;;
36189;SDS011;22232;50.914;13.858;2023-11-19T00:10:10;19.25;;;11.85;;
36189;SDS011;22232;50.914;13.858;2023-11-19T00:12:42;19.83;;;12.10;;
36189;SDS011;22232;50.914;13.858;2023-11-19T00:15:15;17.10;;;10.80;;
36189;SDS011;22232;50.914;13.858;2023-11-19T00:17:47;15.60;;;8.90;;
36189;SDS011;22232;50.914;13.858;2023-11-19T00:20:19;13.13;;;8.55;;
36189;SDS011;22232;50.914;13.858;2023-11-19T00:22:49;14.23;;;8.50;;
36189;SDS011;22232;50.914;13.858;2023-11-19T00:25:20;14.48;;;8.55;;
36189;SDS011;22232;50.914;13.858;2023-11-19T00:27:51;14.05;;;9.32;;
36189;SDS011;22232;50.914;13.858;2023-11-19T00:30:21;12.75;;;8.40;;
36189;SDS011;22232;50.914;13.858;2023-11-19T00:32:48;14.05;;;8.43;;
36189;SDS011;22232;50.914;13.858;2023-11-19T00:35:16;12.57;;;8.00;;
36189;SDS011;22232;50.914;13.858;2023-11-19T00:37:43;10.68;;;7.40;;
36189;SDS011;22232;50.914;13.858;2023-11-19T00:40:13;17.35;;;9.32;;
36189;SDS011;22232;50.914;13.858;2023-11-19T00:42:43;15.32;;;8.27;;
36189;SDS011;22232;50.914;13.858;2023-11-19T00:45:11;13.20;;;7.55;;
36189;SDS011;22232;50.914;13.858;2023-11-19T00:47:40;11.80;;;6.85;;
36189;SDS011;22232;50.914;13.858;2023-11-19T00:50:08;11.85;;;6.85;;
36189;SDS011;22232;50.914;13.858;2023-11-19T00:52:37;9.15;;;6.15;;
36189;SDS011;22232;50.914;13.858;2023-11-19T00:55:05;10.85;;;6.47;;
36189;SDS011;22232;50.914;13.858;2023-11-19T00:57:34;9.07;;;5.95;;
36189;SDS011;22232;50.914;13.858;2023-11-19T01:00:04;8.77;;;5.60;;
36189;SDS011;22232;50.914;13.858;2023-11-19T01:02:48;7.05;;;4.88;;
36189;SDS011;22232;50.914;13.858;2023-11-19T01:05:19;9.95;;;5.90;;
36189;SDS011;22232;50.914;13.858;2023-11-19T01:07:50;6.45;;;4.25;;
36189;SDS011;22232;50.914;13.858;2023-11-19T01:10:22;5.03;;;3.67;;
36189;SDS011;22232;50.914;13.858;2023-11-19T01:12:50;11.73;;;5.72;;
36189;SDS011;22232;50.914;13.858;2023-11-19T01:15:18;7.15;;;3.95;;
36189;SDS011;22232;50.914;13.858;2023-11-19T01:17:49;9.25;;;5.00;;
36189;SDS011;22232;50.914;13.858;2023-11-19T01:20:20;5.38;;;3.45;;
36189;SDS011;22232;50.914;13.858;2023-11-19T01:22:49;3.95;;;2.85;;
36189;SDS011;22232;50.914;13.858;2023-11-19T01:25:17;7.68;;;4.22;;
36189;SDS011;22232;50.914;13.858;2023-11-19T01:27:45;26.70;;;9.18;;
36189;SDS011;22232;50.914;13.858;2023-11-19T01:30:13;3.15;;;2.70;;
36189;SDS011;22232;50.914;13.858;2023-11-19T01:32:40;4.03;;;2.45;;
36189;SDS011;22232;50.914;13.858;2023-11-19T01:35:08;7.03;;;4.32;;
36189;SDS011;22232;50.914;13.858;2023-11-19T01:37:36;26.13;;;9.68;;
36189;SDS011;22232;50.914;13.858;2023-11-19T01:40:04;2.78;;;2.30;;
36189;SDS011;22232;50.914;13.858;2023-11-19T01:42:37;12.45;;;6.32;;
36189;SDS011;22232;50.914;13.858;2023-11-19T01:45:08;5.05;;;3.17;;
36189;SDS011;22232;50.914;13.858;2023-11-19T01:47:37;6.82;;;3.97;;
36189;SDS011;22232;50.914;13.858;2023-11-19T01:50:06;11.40;;;5.45;;
36189;SDS011;22232;50.914;13.858;2023-11-19T01:52:35;11.23;;;5.07;;
36189;SDS011;22232;50.914;13.858;2023-11-19T01:55:06;19.95;;;8.70;;
36189;SDS011;22232;50.914;13.858;2023-11-19T01:57:36;5.07;;;3.35;;
36189;SDS011;22232;50.914;13.858;2023-11-19T02:00:06;4.38;;;2.92;;
36189;SDS011;22232;50.914;13.858;2023-11-19T02:02:43;14.02;;;6.38;;
36189;SDS011;22232;50.914;13.858;2023-11-19T02:05:13;5.75;;;3.40;;
36189;SDS011;22232;50.914;13.858;2023-11-19T02:07:41;5.38;;;3.75;;
36189;SDS011;22232;50.914;13.858;2023-11-19T02:10:09;5.80;;;3.28;;
36189;SDS011;22232;50.914;13.858;2023-11-19T02:12:43;6.13;;;3.90;;
36189;SDS011;22232;50.914;13.858;2023-11-19T02:15:10;6.25;;;3.83;;
36189;SDS011;22232;50.914;13.858;2023-11-19T02:17:38;6.72;;;3.88;;
36189;SDS011;22232;50.914;13.858;2023-11-19T02:20:06;7.63;;;4.32;;
36189;SDS011;22232;50.914;13.858;2023-11-19T02:22:39;10.57;;;6.15;;
36189;SDS011;22232;50.914;13.858;2023-11-19T02:25:07;22.77;;;12.88;;
36189;SDS011;22232;50.914;13.858;2023-11-19T02:27:54;26.67;;;15.15;;
36189;SDS011;22232;50.914;13.858;2023-11-19T02:30:27;15.15;;;8.73;;
36189;SDS011;22232;50.914;13.858;2023-11-19T02:32:56;6.15;;;4.65;;
36189;SDS011;22232;50.914;13.858;2023-11-19T02:35:29;8.55;;;4.93;;
36189;SDS011;22232;50.914;13.858;2023-11-19T02:37:59;6.80;;;5.32;;
36189;SDS011;22232;50.914;13.858;2023-11-19T02:40:27;8.52;;;5.38;;
36189;SDS011;22232;50.914;13.858;2023-11-19T02:42:56;7.70;;;4.80;;
36189;SDS011;22232;50.914;13.858;2023-11-19T02:45:25;6.40;;;4.63;;
36189;SDS011;22232;50.914;13.858;2023-11-19T02:47:54;6.65;;;4.20;;
36189;SDS011;22232;50.914;13.858;2023-11-19T02:50:22;6.78;;;4.55;;
36189;SDS011;22232;50.914;13.858;2023-11-19T02:52:53;14.57;;;6.82;;
36189;SDS011;22232;50.914;13.858;2023-11-19T02:55:24;6.05;;;4.13;;
36189;SDS011;22232;50.914;13.858;2023-11-19T02:57:52;6.25;;;3.80;;
36189;SDS011;22232;50.914;13.858;2023-11-19T03:00:22;6.18;;;4.30;;
36189;SDS011;22232;50.914;13.858;2023-11-19T03:03:10;5.80;;;3.67;;
36189;SDS011;22232;50.914;13.858;2023-11-19T03:05:47;5.93;;;4.10;;
36189;SDS011;22232;50.914;13.858;2023-11-19T03:08:15;7.65;;;4.10;;
36189;SDS011;22232;50.914;13.858;2023-11-19T03:10:46;6.47;;;4.20;;
36189;SDS011;22232;50.914;13.858;2023-11-19T03:13:14;5.57;;;4.35;;
36189;SDS011;22232;50.914;13.858;2023-11-19T03:15:42;8.05;;;4.70;;
36189;SDS011;22232;50.914;13.858;2023-11-19T03:18:10;13.98;;;6.53;;
36189;SDS011;22232;50.914;13.858;2023-11-19T03:20:38;7.75;;;4.72;;
36189;SDS011;22232;50.914;13.858;2023-11-19T03:23:06;6.72;;;4.53;;
36189;SDS011;22232;50.914;13.858;2023-11-19T03:25:34;8.00;;;5.15;;
36189;SDS011;22232;50.914;13.858;2023-11-19T03:28:03;8.45;;;5.50;;
36189;SDS011;22232;50.914;13.858;2023-11-19T03:30:31;7.90;;;5.30;;
36189;SDS011;22232;50.914;13.858;2023-11-19T03:33:01;8.63;;;6.10;;
36189;SDS011;22232;50.914;13.858;2023-11-19T03:35:29;10.68;;;6.15;;
36189;SDS011;22232;50.914;13.858;2023-11-19T03:37:57;11.73;;;6.63;;
36189;SDS011;22232;50.914;13.858;2023-11-19T03:40:25;12.00;;;6.93;;
36189;SDS011;22232;50.914;13.858;2023-11-19T03:42:53;11.13;;;6.85;;
36189;SDS011;22232;50.914;13.858;2023-11-19T03:45:20;10.18;;;6.85;;
36189;SDS011;22232;50.914;13.858;2023-11-19T03:47:48;10.77;;;7.07;;
36189;SDS011;22232;50.914;13.858;2023-11-19T03:50:17;13.05;;;6.43;;
36189;SDS011;22232;50.914;13.858;2023-11-19T03:52:47;10.88;;;6.45;;
36189;SDS011;22232;50.914;13.858;2023-11-19T03:55:15;9.43;;;5.68;;
36189;SDS011;22232;50.914;13.858;2023-11-19T03:57:43;11.43;;;5.95;;
36189;SDS011;22232;50.914;13.858;2023-11-19T04:00:11;9.75;;;6.07;;
36189;SDS011;22232;50.914;13.858;2023-11-19T04:02:41;7.32;;;5.07;;
36189;SDS011;22232;50.914;13.858;2023-11-19T04:05:09;10.43;;;6.00;;
36189;SDS011;22232;50.914;13.858;2023-11-19T04:07:39;8.63;;;5.50;;
36189;SDS011;22232;50.914;13.858;2023-11-19T04:10:07;8.93;;;5.82;;
36189;SDS011;22232;50.914;13.858;2023-11-19T04:12:35;11.73;;;5.63;;
36189;SDS011;22232;50.914;13.858;2023-11-19T04:15:03;8.73;;;5.65;;
36189;SDS011;22232;50.914;13.858;2023-11-19T04:17:31;10.15;;;5.80;;
36189;SDS011;22232;50.914;13.858;2023-11-19T04:19:59;11.00;;;6.13;;
36189;SDS011;22232;50.914;13.858;2023-11-19T04:22:27;8.98;;;6.03;;
36189;SDS011;22232;50.914;13.858;2023-11-19T04:24:54;9.95;;;6.35;;
36189;SDS011;22232;50.914;13.858;2023-11-19T04:27:22;8.38;;;5.63;;
36189;SDS011;22232;50.914;13.858;2023-11-19T04:29:50;13.65;;;6.28;;
36189;SDS011;22232;50.914;13.858;2023-11-19T04:32:18;9.77;;;5.65;;
36189;SDS011;22232;50.914;13.858;2023-11-19T04:34:48;9.18;;;5.40;;
36189;SDS011;22232;50.914;13.858;2023-11-19T04:37:16;9.25;;;5.20;;
36189;SDS011;22232;50.914;13.858;2023-11-19T04:39:44;8.88;;;5.22;;
36189;SDS011;22232;50.914;13.858;2023-11-19T04:42:13;7.35;;;5.32;;
36189;SDS011;22232;50.914;13.858;2023-11-19T04:44:44;9.23;;;5.45;;
36189;SDS011;22232;50.914;13.858;2023-11-19T04:47:12;6.60;;;5.07;;
36189;SDS011;22232;50.914;13.858;2023-11-19T04:49:42;7.57;;;5.13;;
36189;SDS011;22232;50.914;13.858;2023-11-19T04:52:10;6.75;;;4.88;;
36189;SDS011;22232;50.914;13.858;2023-11-19T04:54:43;8.15;;;5.25;;
36189;SDS011;22232;50.914;13.858;2023-11-19T04:57:11;6.05;;;4.63;;
36189;SDS011;22232;50.914;13.858;2023-11-19T04:59:39;9.55;;;4.95;;
36189;SDS011;22232;50.914;13.858;2023-11-19T05:02:08;8.48;;;4.63;;
36189;SDS011;22232;50.914;13.858;2023-11-19T05:04:36;7.20;;;5.18;;
36189;SDS011;22232;50.914;13.858;2023-11-19T05:07:05;9.15;;;5.40;;
36189;SDS011;22232;50.914;13.858;2023-11-19T05:09:32;8.30;;;4.88;;
36189;SDS011;22232;50.914;13.858;2023-11-19T05:12:00;12.90;;;5.95;;
36189;SDS011;22232;50.914;13.858;2023-11-19T05:14:29;10.55;;;6.05;;
36189;SDS011;22232;50.914;13.858;2023-11-19T05:16:57;10.52;;;6.57;;
36189;SDS011;22232;50.914;13.858;2023-11-19T05:19:24;10.77;;;5.90;;
36189;SDS011;22232;50.914;13.858;2023-11-19T05:21:52;10.65;;;6.20;;
36189;SDS011;22232;50.914;13.858;2023-11-19T05:24:19;9.35;;;6.35;;
36189;SDS011;22232;50.914;13.858;2023-11-19T05:26:47;9.20;;;6.35;;
36189;SDS011;22232;50.914;13.858;2023-11-19T05:29:14;10.15;;;5.53;;
36189;SDS011;22232;50.914;13.858;2023-11-19T05:31:42;8.82;;;5.82;;
36189;SDS011;22232;50.914;13.858;2023-11-19T05:34:11;11.15;;;6.57;;
36189;SDS011;22232;50.914;13.858;2023-11-19T05:36:39;11.55;;;6.72;;
36189;SDS011;22232;50.914;13.858;2023-11-19T05:39:06;9.00;;;6.40;;
36189;SDS011;22232;50.914;13.858;2023-11-19T05:41:34;7.68;;;5.28;;
36189;SDS011;22232;50.914;13.858;2023-11-19T05:44:01;6.53;;;4.65;;
36189;SDS011;22232;50.914;13.858;2023-11-19T05:46:29;7.07;;;4.60;;
36189;SDS011;22232;50.914;13.858;2023-11-19T05:48:57;7.07;;;4.40;;
36189;SDS011;22232;50.914;13.858;2023-11-19T05:51:25;4.95;;;4.28;;
36189;SDS011;22232;50.914;13.858;2023-11-19T05:53:53;4.93;;;3.67;;
36189;SDS011;22232;50.914;13.858;2023-11-19T05:56:22;3.85;;;3.00;;
36189;SDS011;22232;50.914;13.858;2023-11-19T05:58:50;6.00;;;2.53;;
36189;SDS011;22232;50.914;13.858;2023-11-19T06:01:18;2.95;;;2.40;;
36189;SDS011;22232;50.914;13.858;2023-11-19T06:03:45;2.08;;;1.80;;
36189;SDS011;22232;50.914;13.858;2023-11-19T06:06:17;2.13;;;1.80;;
36189;SDS011;22232;50.914;13.858;2023-11-19T06:08:45;2.22;;;1.50;;
36189;SDS011;22232;50.914;13.858;2023-11-19T06:11:12;4.65;;;2.50;;
36189;SDS011;22232;50.914;13.858;2023-11-19T06:13:45;1.65;;;1.23;;
36189;SDS011;22232;50.914;13.858;2023-11-19T06:16:13;1.20;;;1.05;;
36189;SDS011;22232;50.914;13.858;2023-11-19T06:18:41;2.08;;;1.02;;
36189;SDS011;22232;50.914;13.858;2023-11-19T06:21:11;1.13;;;0.90;;
36189;SDS011;22232;50.914;13.858;2023-11-19T06:23:39;1.48;;;1.30;;
36189;SDS011;22232;50.914;13.858;2023-11-19T06:26:07;1.80;;;1.40;;
36189;SDS011;22232;50.914;13.858;2023-11-19T06:28:36;1.58;;;1.23;;
36189;SDS011;22232;50.914;13.858;2023-11-19T06:31:04;2.50;;;1.20;;
36189;SDS011;22232;50.914;13.858;2023-11-19T06:33:31;0.88;;;0.80;;
36189;SDS011;22232;50.914;13.858;2023-11-19T06:35:59;0.93;;;0.80;;
36189;SDS011;22232;50.914;13.858;2023-11-19T06:38:27;1.20;;;1.00;;
36189;SDS011;22232;50.914;13.858;2023-11-19T06:40:54;1.00;;;0.90;;
36189;SDS011;22232;50.914;13.858;2023-11-19T06:43:22;0.90;;;0.77;;
36189;SDS011;22232;50.914;13.858;2023-11-19T06:45:49;1.17;;;0.80;;
36189;SDS011;22232;50.914;13.858;2023-11-19T06:48:17;1.25;;;1.00;;
36189;SDS011;22232;50.914;13.858;2023-11-19T06:50:44;1.60;;;0.90;;
36189;SDS011;22232;50.914;13.858;2023-11-19T06:53:12;0.60;;;0.60;;
36189;SDS011;22232;50.914;13.858;2023-11-19T06:55:40;0.90;;;0.70;;
36189;SDS011;22232;50.914;13.858;2023-11-19T06:58:08;0.95;;;0.80;;
36189;SDS011;22232;50.914;13.858;2023-11-19T07:00:35;1.33;;;0.90;;
36189;SDS011;22232;50.914;13.858;2023-11-19T07:03:03;0.68;;;0.68;;
36189;SDS011;22232;50.914;13.858;2023-11-19T07:05:32;1.20;;;0.90;;
36189;SDS011;22232;50.914;13.858;2023-11-19T07:08:00;1.23;;;0.63;;
36189;SDS011;22232;50.914;13.858;2023-11-19T07:10:28;0.65;;;0.65;;
36189;SDS011;22232;50.914;13.858;2023-11-19T07:12:56;0.77;;;0.77;;
36189;SDS011;22232;50.914;13.858;2023-11-19T07:15:24;2.83;;;0.85;;
36189;SDS011;22232;50.914;13.858;2023-11-19T07:17:52;0.70;;;0.70;;
36189;SDS011;22232;50.914;13.858;2023-11-19T07:20:24;1.88;;;1.00;;
36189;SDS011;22232;50.914;13.858;2023-11-19T07:22:54;2.78;;;1.10;;
36189;SDS011;22232;50.914;13.858;2023-11-19T07:25:24;0.75;;;0.70;;
36189;SDS011;22232;50.914;13.858;2023-11-19T07:27:52;1.48;;;1.00;;
36189;SDS011;22232;50.914;13.858;2023-11-19T07:30:20;1.67;;;0.90;;
36189;SDS011;22232;50.914;13.858;2023-11-19T07:32:47;1.25;;;0.80;;
36189;SDS011;22232;50.914;13.858;2023-11-19T07:35:16;1.40;;;0.82;;
36189;SDS011;22232;50.914;13.858;2023-11-19T07:37:44;0.70;;;0.70;;
36189;SDS011;22232;50.914;13.858;2023-11-19T07:40:14;1.08;;;0.82;;
36189;SDS011;22232;50.914;13.858;2023-11-19T07:42:42;1.92;;;0.90;;
36189;SDS011;22232;50.914;13.858;2023-11-19T07:45:10;2.20;;;0.80;;
36189;SDS011;22232;50.914;13.858;2023-11-19T07:47:37;1.55;;;0.88;;
36189;SDS011;22232;50.914;13.858;2023-11-19T07:50:06;1.00;;;0.70;;
36189;SDS011;22232;50.914;13.858;2023-11-19T07:52:33;3.10;;;1.27;;
36189;SDS011;22232;50.914;13.858;2023-11-19T07:55:01;0.82;;;0.70;;
36189;SDS011;22232;50.914;13.858;2023-11-19T07:57:30;0.57;;;0.28;;
36189;SDS011;22232;50.914;13.858;2023-11-19T07:59:58;2.70;;;0.52;;
36189;SDS011;22232;50.914;13.858;2023-11-19T08:02:25;1.27;;;0.68;;
36189;SDS011;22232;50.914;13.858;2023-11-19T08:04:53;1.30;;;0.63;;
36189;SDS011;22232;50.914;13.858;2023-11-19T08:07:22;0.73;;;0.40;;
36189;SDS011;22232;50.914;13.858;2023-11-19T08:09:49;1.20;;;0.50;;
36189;SDS011;22232;50.914;13.858;2023-11-19T08:12:17;0.60;;;0.40;;
36189;SDS011;22232;50.914;13.858;2023-11-19T08:14:45;0.20;;;0.20;;
36189;SDS011;22232;50.914;13.858;2023-11-19T08:17:12;0.80;;;0.80;;
36189;SDS011;22232;50.914;13.858;2023-11-19T08:19:40;0.65;;;0.60;;
36189;SDS011;22232;50.914;13.858;2023-11-19T08:22:07;1.77;;;0.57;;
36189;SDS011;22232;50.914;13.858;2023-11-19T08:24:36;0.40;;;0.40;;
36189;SDS011;22232;50.914;13.858;2023-11-19T08:27:03;0.52;;;0.40;;
36189;SDS011;22232;50.914;13.858;2023-11-19T08:29:32;1.30;;;0.63;;
36189;SDS011;22232;50.914;13.858;2023-11-19T08:32:02;0.40;;;0.40;;
36189;SDS011;22232;50.914;13.858;2023-11-19T08:34:30;1.27;;;0.47;;
36189;SDS011;22232;50.914;13.858;2023-11-19T08:36:59;0.68;;;0.52;;
36189;SDS011;22232;50.914;13.858;2023-11-19T08:39:26;1.10;;;0.60;;
36189;SDS011;22232;50.914;13.858;2023-11-19T08:41:54;3.47;;;0.50;;
36189;SDS011;22232;50.914;13.858;2023-11-19T08:44:22;2.67;;;0.70;;
36189;SDS011;22232;50.914;13.858;2023-11-19T08:46:50;2.00;;;0.70;;
36189;SDS011;22232;50.914;13.858;2023-11-19T08:49:17;1.90;;;0.63;;
36189;SDS011;22232;50.914;13.858;2023-11-19T08:51:45;1.73;;;0.90;;
36189;SDS011;22232;50.914;13.858;2023-11-19T08:54:13;0.80;;;0.68;;
36189;SDS011;22232;50.914;13.858;2023-11-19T08:56:41;1.30;;;0.60;;
36189;SDS011;22232;50.914;13.858;2023-11-19T08:59:09;2.25;;;1.10;;
36189;SDS011;22232;50.914;13.858;2023-11-19T09:01:36;1.30;;;0.90;;
36189;SDS011;22232;50.914;13.858;2023-11-19T09:04:04;4.13;;;0.98;;
36189;SDS011;22232;50.914;13.858;2023-11-19T09:06:32;5.22;;;0.95;;
36189;SDS011;22232;50.914;13.858;2023-11-19T09:09:00;3.72;;;1.10;;
36189;SDS011;22232;50.914;13.858;2023-11-19T09:11:30;4.07;;;0.80;;
36189;SDS011;22232;50.914;13.858;2023-11-19T09:13:57;2.55;;;0.93;;
36189;SDS011;22232;50.914;13.858;2023-11-19T09:16:25;2.58;;;1.00;;
36189;SDS011;22232;50.914;13.858;2023-11-19T09:18:53;4.18;;;1.00;;
36189;SDS011;22232;50.914;13.858;2023-11-19T09:21:20;4.10;;;1.10;;
36189;SDS011;22232;50.914;13.858;2023-11-19T09:23:48;3.40;;;0.85;;
36189;SDS011;22232;50.914;13.858;2023-11-19T09:26:16;1.55;;;0.80;;
36189;SDS011;22232;50.914;13.858;2023-11-19T09:28:44;4.43;;;1.00;;
36189;SDS011;22232;50.914;13.858;2023-11-19T09:31:14;2.03;;;1.10;;
36189;SDS011;22232;50.914;13.858;2023-11-19T09:33:45;1.95;;;0.90;;
36189;SDS011;22232;50.914;13.858;2023-11-19T09:36:13;1.92;;;0.98;;
36189;SDS011;22232;50.914;13.858;2023-11-19T09:38:41;4.40;;;1.10;;
36189;SDS011;22232;50.914;13.858;2023-11-19T09:41:09;3.83;;;1.20;;
36189;SDS011;22232;50.914;13.858;2023-11-19T09:43:39;5.72;;;1.17;;
36189;SDS011;22232;50.914;13.858;2023-11-19T09:46:12;2.97;;;1.30;;
36189;SDS011;22232;50.914;13.858;2023-11-19T09:48:43;3.47;;;1.15;;
36189;SDS011;22232;50.914;13.858;2023-11-19T09:51:11;3.85;;;1.00;;
36189;SDS011;22232;50.914;13.858;2023-11-19T09:53:39;5.22;;;1.13;;
36189;SDS011;22232;50.914;13.858;2023-11-19T09:56:07;4.03;;;1.10;;
36189;SDS011;22232;50.914;13.858;2023-11-19T09:58:35;5.93;;;1.90;;
36189;SDS011;22232;50.914;13.858;2023-11-19T10:01:03;3.45;;;1.10;;
36189;SDS011;22232;50.914;13.858;2023-11-19T10:03:37;3.13;;;1.02;;
36189;SDS011;22232;50.914;13.858;2023-11-19T10:06:08;6.88;;;1.27;;
36189;SDS011;22232;50.914;13.858;2023-11-19T10:08:37;5.75;;;1.00;;
36189;SDS011;22232;50.914;13.858;2023-11-19T10:11:06;3.15;;;1.27;;
36189;SDS011;22232;50.914;13.858;2023-11-19T10:13:35;7.18;;;1.30;;
36189;SDS011;22232;50.914;13.858;2023-11-19T10:16:09;4.90;;;1.23;;
36189;SDS011;22232;50.914;13.858;2023-11-19T10:18:46;4.32;;;1.20;;
36189;SDS011;22232;50.914;13.858;2023-11-19T10:21:19;1.88;;;1.10;;
36189;SDS011;22232;50.914;13.858;2023-11-19T10:23:53;6.78;;;1.63;;
36189;SDS011;22232;50.914;13.858;2023-11-19T10:26:24;5.47;;;1.10;;
36189;SDS011;22232;50.914;13.858;2023-11-19T10:28:52;5.45;;;1.25;;
36189;SDS011;22232;50.914;13.858;2023-11-19T10:31:20;5.68;;;1.02;;
36189;SDS011;22232;50.914;13.858;2023-11-19T10:33:53;4.72;;;1.20;;
36189;SDS011;22232;50.914;13.858;2023-11-19T10:36:21;3.50;;;1.15;;
36189;SDS011;22232;50.914;13.858;2023-11-19T10:38:52;2.15;;;1.20;;
36189;SDS011;22232;50.914;13.858;2023-11-19T10:41:30;7.50;;;1.38;;
36189;SDS011;22232;50.914;13.858;2023-11-19T10:43:59;5.00;;;1.20;;
36189;SDS011;22232;50.914;13.858;2023-11-19T10:46:36;4.07;;;1.25;;
36189;SDS011;22232;50.914;13.858;2023-11-19T10:49:07;1.42;;;1.00;;
36189;SDS011;22232;50.914;13.858;2023-11-19T10:51:35;2.53;;;1.20;;
36189;SDS011;22232;50.914;13.858;2023-11-19T10:54:06;2.28;;;1.02;;
36189;SDS011;22232;50.914;13.858;2023-11-19T10:56:34;3.08;;;0.85;;
36189;SDS011;22232;50.914;13.858;2023-11-19T10:59:02;4.40;;;1.17;;
36189;SDS011;22232;50.914;13.858;2023-11-19T11:01:48;7.50;;;1.13;;
36189;SDS011;22232;50.914;13.858;2023-11-19T11:04:24;4.07;;;0.90;;
36189;SDS011;22232;50.914;13.858;2023-11-19T11:09:23;4.95;;;0.75;;
36189;SDS011;22232;50.914;13.858;2023-11-19T11:16:06;2.00;;;0.80;;
36189;SDS011;22232;50.914;13.858;2023-11-19T11:18:35;1.88;;;0.90;;
36189;SDS011;22232;50.914;13.858;2023-11-19T11:29:03;2.22;;;0.82;;
36189;SDS011;22232;50.914;13.858;2023-11-19T11:31:48;5.82;;;1.83;;
36189;SDS011;22232;50.914;13.858;2023-11-19T11:34:57;6.63;;;3.92;;
36189;SDS011;22232;50.914;13.858;2023-11-19T11:40:15;5.00;;;2.60;;
36189;SDS011;22232;50.914;13.858;2023-11-19T11:42:45;9.05;;;4.72;;
36189;SDS011;22232;50.914;13.858;2023-11-19T11:45:13;10.52;;;4.05;;
36189;SDS011;22232;50.914;13.858;2023-11-19T11:50:16;8.63;;;4.38;;
36189;SDS011;22232;50.914;13.858;2023-11-19T11:58:18;7.18;;;1.48;;
36189;SDS011;22232;50.914;13.858;2023-11-19T12:00:47;4.25;;;1.40;;
36189;SDS011;22232;50.914;13.858;2023-11-19T12:03:16;5.55;;;1.23;;
36189;SDS011;22232;50.914;13.858;2023-11-19T12:05:49;12.38;;;1.70;;
36189;SDS011;22232;50.914;13.858;2023-11-19T12:08:20;6.07;;;1.60;;
36189;SDS011;22232;50.914;13.858;2023-11-19T12:10:53;5.47;;;1.55;;
36189;SDS011;22232;50.914;13.858;2023-11-19T12:13:29;5.88;;;1.48;;
36189;SDS011;22232;50.914;13.858;2023-11-19T12:16:31;8.48;;;1.80;;
36189;SDS011;22232;50.914;13.858;2023-11-19T12:19:03;10.80;;;2.10;;
36189;SDS011;22232;50.914;13.858;2023-11-19T12:21:35;8.73;;;1.85;;
36189;SDS011;22232;50.914;13.858;2023-11-19T12:24:05;7.80;;;1.83;;
36189;SDS011;22232;50.914;13.858;2023-11-19T12:26:38;7.35;;;2.40;;
36189;SDS011;22232;50.914;13.858;2023-11-19T12:29:06;14.65;;;2.50;;
36189;SDS011;22232;50.914;13.858;2023-11-19T12:31:36;9.43;;;2.05;;
36189;SDS011;22232;50.914;13.858;2023-11-19T12:34:07;10.95;;;2.22;;
36189;SDS011;22232;50.914;13.858;2023-11-19T12:36:40;7.90;;;2.28;;
36189;SDS011;22232;50.914;13.858;2023-11-19T12:39:08;10.43;;;2.00;;
36189;SDS011;22232;50.914;13.858;2023-11-19T12:41:49;10.75;;;2.05;;
36189;SDS011;22232;50.914;13.858;2023-11-19T12:44:18;8.55;;;1.80;;
36189;SDS011;22232;50.914;13.858;2023-11-19T12:46:46;15.23;;;2.63;;
36189;SDS011;22232;50.914;13.858;2023-11-19T12:49:14;9.77;;;2.42;;
36189;SDS011;22232;50.914;13.858;2023-11-19T12:51:41;12.32;;;2.72;;
36189;SDS011;22232;50.914;13.858;2023-11-19T12:54:09;10.93;;;2.55;;
36189;SDS011;22232;50.914;13.858;2023-11-19T12:56:37;9.07;;;3.05;;
36189;SDS011;22232;50.914;13.858;2023-11-19T12:59:11;11.50;;;2.42;;
36189;SDS011;22232;50.914;13.858;2023-11-19T13:01:40;15.05;;;3.92;;
36189;SDS011;22232;50.914;13.858;2023-11-19T13:04:17;16.33;;;2.40;;
36189;SDS011;22232;50.914;13.858;2023-11-19T13:06:46;9.45;;;2.00;;
36189;SDS011;22232;50.914;13.858;2023-11-19T13:09:31;15.70;;;2.75;;
36189;SDS011;22232;50.914;13.858;2023-11-19T13:11:59;11.30;;;2.20;;
36189;SDS011;22232;50.914;13.858;2023-11-19T13:14:40;12.48;;;2.55;;
36189;SDS011;22232;50.914;13.858;2023-11-19T13:17:12;11.63;;;2.30;;
36189;SDS011;22232;50.914;13.858;2023-11-19T13:19:41;13.85;;;2.67;;
36189;SDS011;22232;50.914;13.858;2023-11-19T13:22:08;20.20;;;2.53;;
36189;SDS011;22232;50.914;13.858;2023-11-19T13:24:36;12.52;;;2.58;;
36189;SDS011;22232;50.914;13.858;2023-11-19T13:27:04;16.20;;;3.22;;
36189;SDS011;22232;50.914;13.858;2023-11-19T13:29:32;19.52;;;2.88;;
36189;SDS011;22232;50.914;13.858;2023-11-19T13:32:02;12.18;;;3.00;;
36189;SDS011;22232;50.914;13.858;2023-11-19T13:34:31;14.88;;;3.15;;
36189;SDS011;22232;50.914;13.858;2023-11-19T13:36:58;12.73;;;2.97;;
36189;SDS011;22232;50.914;13.858;2023-11-19T13:39:26;15.60;;;4.25;;
36189;SDS011;22232;50.914;13.858;2023-11-19T13:41:54;13.23;;;3.60;;
36189;SDS011;22232;50.914;13.858;2023-11-19T13:44:39;15.02;;;4.15;;
36189;SDS011;22232;50.914;13.858;2023-11-19T13:47:08;11.35;;;2.70;;
36189;SDS011;22232;50.914;13.858;2023-11-19T13:49:36;18.05;;;3.92;;
36189;SDS011;22232;50.914;13.858;2023-11-19T13:52:04;13.32;;;4.90;;
36189;SDS011;22232;50.914;13.858;2023-11-19T13:54:32;14.18;;;4.03;;
36189;SDS011;22232;50.914;13.858;2023-11-19T13:57:00;20.48;;;3.80;;
36189;SDS011;22232;50.914;13.858;2023-11-19T13:59:28;12.77;;;2.95;;
36189;SDS011;22232;50.914;13.858;2023-11-19T14:01:55;18.60;;;4.13;;
36189;SDS011;22232;50.914;13.858;2023-11-19T14:04:23;14.95;;;3.05;;
36189;SDS011;22232;50.914;13.858;2023-11-19T14:06:51;15.73;;;3.75;;
36189;SDS011;22232;50.914;13.858;2023-11-19T14:09:18;16.15;;;4.30;;
36189;SDS011;22232;50.914;13.858;2023-11-19T14:11:46;16.30;;;3.08;;
36189;SDS011;22232;50.914;13.858;2023-11-19T14:14:14;14.25;;;3.35;;
36189;SDS011;22232;50.914;13.858;2023-11-19T14:16:41;11.30;;;2.70;;
36189;SDS011;22232;50.914;13.858;2023-11-19T14:19:09;15.60;;;3.88;;
36189;SDS011;22232;50.914;13.858;2023-11-19T14:21:36;15.25;;;3.33;;
36189;SDS011;22232;50.914;13.858;2023-11-19T14:24:04;17.52;;;3.92;;
36189;SDS011;22232;50.914;13.858;2023-11-19T14:26:32;15.57;;;2.85;;
36189;SDS011;22232;50.914;13.858;2023-11-19T14:28:59;21.65;;;3.83;;
36189;SDS011;22232;50.914;13.858;2023-11-19T14:31:27;14.77;;;3.05;;
36189;SDS011;22232;50.914;13.858;2023-11-19T14:33:56;12.77;;;3.08;;
36189;SDS011;22232;50.914;13.858;2023-11-19T14:36:24;16.48;;;4.60;;
36189;SDS011;22232;50.914;13.858;2023-11-19T14:38:51;14.77;;;3.50;;
36189;SDS011;22232;50.914;13.858;2023-11-19T14:41:19;18.45;;;4.55;;
36189;SDS011;22232;50.914;13.858;2023-11-19T14:43:46;14.20;;;3.30;;
36189;SDS011;22232;50.914;13.858;2023-11-19T14:46:15;16.63;;;3.90;;
36189;SDS011;22232;50.914;13.858;2023-11-19T14:48:42;14.18;;;4.00;;
36189;SDS011;22232;50.914;13.858;2023-11-19T14:51:10;13.80;;;3.05;;
36189;SDS011;22232;50.914;13.858;2023-11-19T14:53:38;17.75;;;3.72;;
36189;SDS011;22232;50.914;13.858;2023-11-19T14:56:05;10.88;;;2.70;;
36189;SDS011;22232;50.914;13.858;2023-11-19T14:58:37;11.55;;;2.38;;
36189;SDS011;22232;50.914;13.858;2023-11-19T15:01:05;18.73;;;3.20;;
36189;SDS011;22232;50.914;13.858;2023-11-19T15:03:34;13.00;;;2.50;;
36189;SDS011;22232;50.914;13.858;2023-11-19T15:06:23;9.05;;;2.10;;
36189;SDS011;22232;50.914;13.858;2023-11-19T15:08:54;13.73;;;2.50;;